sensor_id;sensor_type;location;lat;lon;timestamp;pressure;altitude;pressure_sealevel;temperature;humidity
47530;BME280;33272;51.922;7.730;2022-12-04T00:00:09;101069.19;;;1.33;100.00
47530;BME280;33272;51.922;7.730;2022-12-04T00:02:38;101061.78;;;1.35;100.00
47530;BME280;33272;51.922;7.730;2022-12-04T00:05:08;101063.78;;;1.37;100.00
47530;BME280;33272;51.922;7.730;2022-12-04T00:07:35;101059.81;;;1.39;100.00
47530;BME280;33272;51.922;7.730;2022-12-04T00:10:03;101058.34;;;1.42;100.00
47530;BME280;33272;51.922;7.730;2022-12-04T00:12:30;101048.09;;;1.40;100.00
47530;BME280;33272;51.922;7.730;2022-12-04T00:14:57;101057.84;;;1.37;100.00
47530;BME280;33272;51.922;7.730;2022-12-04T00:17:24;101045.97;;;1.36;100.00
47530;BME280;33272;51.922;7.730;2022-12-04T00:19:52;101048.28;;;1.34;100.00
47530;BME280;33272;51.922;7.730;2022-12-04T00:22:19;101045.25;;;1.30;100.00
47530;BME280;33272;51.922;7.730;2022-12-04T00:24:47;101051.00;;;1.29;100.00
47530;BME280;33272;51.922;7.730;2022-12-04T00:27:14;101045.41;;;1.31;100.00
47530;BME280;33272;51.922;7.730;2022-12-04T00:29:41;101045.41;;;1.31;100.00
47530;BME280;33272;51.922;7.730;2022-12-04T00:32:08;101049.72;;;1.32;100.00
47530;BME280;33272;51.922;7.730;2022-12-04T00:34:35;101048.31;;;1.27;100.00
47530;BME280;33272;51.922;7.730;2022-12-04T00:37:03;101056.78;;;1.28;100.00
47530;BME280;33272;51.922;7.730;2022-12-04T00:39:30;101053.34;;;1.27;100.00
47530;BME280;33272;51.922;7.730;2022-12-04T00:41:57;101040.91;;;1.29;100.00
47530;BME280;33272;51.922;7.730;2022-12-04T00:44:24;101046.69;;;1.28;100.00
47530;BME280;33272;51.922;7.730;2022-12-04T00:46:51;101046.69;;;1.28;100.00
47530;BME280;33272;51.922;7.730;2022-12-04T00:49:18;101041.66;;;1.28;100.00
47530;BME280;33272;51.922;7.730;2022-12-04T00:51:45;101041.84;;;1.29;100.00
47530;BME280;33272;51.922;7.730;2022-12-04T00:54:13;101046.16;;;1.30;100.00
47530;BME280;33272;51.922;7.730;2022-12-04T00:56:40;101042.00;;;1.31;100.00
47530;BME280;33272;51.922;7.730;2022-12-04T00:59:09;101043.63;;;1.30;100.00
47530;BME280;33272;51.922;7.730;2022-12-04T01:01:36;101038.41;;;1.29;100.00
47530;BME280;33272;51.922;7.730;2022-12-04T01:04:03;101046.69;;;1.28;100.00
47530;BME280;33272;51.922;7.730;2022-12-04T01:06:32;101048.84;;;1.32;100.00
47530;BME280;33272;51.922;7.730;2022-12-04T01:09:03;101039.31;;;1.29;100.00
47530;BME280;33272;51.922;7.730;2022-12-04T01:11:37;101036.22;;;1.32;100.00
47530;BME280;33272;51.922;7.730;2022-12-04T01:14:04;101036.22;;;1.32;100.00
47530;BME280;33272;51.922;7.730;2022-12-04T01:16:33;101033.91;;;1.33;100.00
47530;BME280;33272;51.922;7.730;2022-12-04T01:19:01;101032.81;;;1.31;100.00
47530;BME280;33272;51.922;7.730;2022-12-04T01:21:30;101033.00;;;1.33;100.00
47530;BME280;33272;51.922;7.730;2022-12-04T01:23:58;101034.59;;;1.32;100.00
47530;BME280;33272;51.922;7.730;2022-12-04T01:26:25;101032.06;;;1.32;100.00
47530;BME280;33272;51.922;7.730;2022-12-04T01:28:53;101033.53;;;1.30;100.00
47530;BME280;33272;51.922;7.730;2022-12-04T01:31:21;101026.88;;;1.31;100.00
47530;BME280;33272;51.922;7.730;2022-12-04T01:33:50;101033.00;;;1.33;100.00
47530;BME280;33272;51.922;7.730;2022-12-04T01:36:21;101033.69;;;1.32;100.00
47530;BME280;33272;51.922;7.730;2022-12-04T01:38:48;101041.63;;;1.35;100.00
47530;BME280;33272;51.922;7.730;2022-12-04T01:41:18;101039.28;;;1.36;100.00
47530;BME280;33272;51.922;7.730;2022-12-04T01:44:13;101036.56;;;1.35;100.00
47530;BME280;33272;51.922;7.730;2022-12-04T01:46:42;101037.66;;;1.37;100.00
47530;BME280;33272;51.922;7.730;2022-12-04T01:49:13;101038.91;;;1.41;100.00
47530;BME280;33272;51.922;7.730;2022-12-04T01:51:44;101038.19;;;1.42;100.00
47530;BME280;33272;51.922;7.730;2022-12-04T01:54:18;101034.22;;;1.44;100.00
47530;BME280;33272;51.922;7.730;2022-12-04T01:56:50;101034.22;;;1.44;100.00
47530;BME280;33272;51.922;7.730;2022-12-04T01:59:32;101039.81;;;1.41;100.00
47530;BME280;33272;51.922;7.730;2022-12-04T02:02:04;101035.50;;;1.40;100.00
47530;BME280;33272;51.922;7.730;2022-12-04T02:04:33;101036.59;;;1.42;100.00
47530;BME280;33272;51.922;7.730;2022-12-04T02:07:00;101037.28;;;1.41;100.00
47530;BME280;33272;51.922;7.730;2022-12-04T02:09:28;101034.22;;;1.44;100.00
47530;BME280;33272;51.922;7.730;2022-12-04T02:12:05;101036.75;;;1.44;100.00
47530;BME280;33272;51.922;7.730;2022-12-04T02:14:46;101030.97;;;1.45;100.00
47530;BME280;33272;51.922;7.730;2022-12-04T02:17:25;101035.31;;;1.46;100.00
47530;BME280;33272;51.922;7.730;2022-12-04T02:20:06;101027.00;;;1.47;100.00
47530;BME280;33272;51.922;7.730;2022-12-04T02:25:44;101019.78;;;1.50;100.00
47530;BME280;33272;51.922;7.730;2022-12-04T02:28:21;101025.56;;;1.49;100.00
47530;BME280;33272;51.922;7.730;2022-12-04T02:30:52;101020.53;;;1.49;100.00
47530;BME280;33272;51.922;7.730;2022-12-04T02:33:24;101020.53;;;1.49;100.00
47530;BME280;33272;51.922;7.730;2022-12-04T02:36:01;101022.31;;;1.50;100.00
47530;BME280;33272;51.922;7.730;2022-12-04T02:38:34;101025.56;;;1.49;100.00
47530;BME280;33272;51.922;7.730;2022-12-04T02:41:08;101019.28;;;1.45;100.00
47530;BME280;33272;51.922;7.730;2022-12-04T02:43:42;101025.22;;;1.46;100.00
47530;BME280;33272;51.922;7.730;2022-12-04T02:46:16;101022.69;;;1.46;100.00
47530;BME280;33272;51.922;7.730;2022-12-04T02:48:49;101013.16;;;1.43;100.00
47530;BME280;33272;51.922;7.730;2022-12-04T02:51:19;101020.88;;;1.45;100.00
47530;BME280;33272;51.922;7.730;2022-12-04T02:53:51;101020.88;;;1.45;100.00
47530;BME280;33272;51.922;7.730;2022-12-04T02:56:23;101015.81;;;1.45;100.00
47530;BME280;33272;51.922;7.730;2022-12-04T02:58:56;101020.72;;;1.43;100.00
47530;BME280;33272;51.922;7.730;2022-12-04T03:01:27;101013.34;;;1.37;100.00
47530;BME280;33272;51.922;7.730;2022-12-04T03:03:59;101012.78;;;1.40;100.00
47530;BME280;33272;51.922;7.730;2022-12-04T03:06:32;101012.59;;;1.38;100.00
47530;BME280;33272;51.922;7.730;2022-12-04T03:09:07;101015.13;;;1.38;100.00
47530;BME280;33272;51.922;7.730;2022-12-04T03:11:37;101014.97;;;1.37;100.00
47530;BME280;33272;51.922;7.730;2022-12-04T03:14:10;101011.72;;;1.38;100.00
47530;BME280;33272;51.922;7.730;2022-12-04T03:16:40;101016.75;;;1.38;100.00
47530;BME280;33272;51.922;7.730;2022-12-04T03:19:11;101014.22;;;1.38;100.00
47530;BME280;33272;51.922;7.730;2022-12-04T03:21:45;101014.22;;;1.38;100.00
47530;BME280;33272;51.922;7.730;2022-12-04T03:24:18;101020.38;;;1.40;100.00
47530;BME280;33272;51.922;7.730;2022-12-04T03:26:48;101023.97;;;1.35;100.00
47530;BME280;33272;51.922;7.730;2022-12-04T03:29:21;101019.28;;;1.38;100.00
47530;BME280;33272;51.922;7.730;2022-12-04T03:31:55;101023.28;;;1.36;100.00
47530;BME280;33272;51.922;7.730;2022-12-04T03:34:29;101024.66;;;1.41;100.00
47530;BME280;33272;51.922;7.730;2022-12-04T03:37:03;101022.00;;;1.39;100.00
47530;BME280;33272;51.922;7.730;2022-12-04T03:39:36;101015.13;;;1.38;100.00
47530;BME280;33272;51.922;7.730;2022-12-04T03:42:10;101022.88;;;1.40;100.00
47530;BME280;33272;51.922;7.730;2022-12-04T03:44:45;101026.13;;;1.39;100.00
47530;BME280;33272;51.922;7.730;2022-12-04T03:47:17;101024.50;;;1.39;100.00
47530;BME280;33272;51.922;7.730;2022-12-04T03:49:52;101024.66;;;1.41;100.00
47530;BME280;33272;51.922;7.730;2022-12-04T03:52:32;101027.19;;;1.41;100.00
47530;BME280;33272;51.922;7.730;2022-12-04T03:55:09;101014.59;;;1.41;100.00
47530;BME280;33272;51.922;7.730;2022-12-04T03:57:42;101016.56;;;1.44;100.00
47530;BME280;33272;51.922;7.730;2022-12-04T04:00:14;101010.78;;;1.45;100.00
47530;BME280;33272;51.922;7.730;2022-12-04T04:02:47;101014.22;;;1.45;100.00
47530;BME280;33272;51.922;7.730;2022-12-04T04:05:17;101019.28;;;1.45;100.00
47530;BME280;33272;51.922;7.730;2022-12-04T04:07:48;101009.88;;;1.44;100.00
47530;BME280;33272;51.922;7.730;2022-12-04T04:10:20;101013.69;;;1.41;100.00
47530;BME280;33272;51.922;7.730;2022-12-04T04:12:53;101014.59;;;1.41;100.00
47530;BME280;33272;51.922;7.730;2022-12-04T04:15:43;101022.88;;;1.40;100.00
47530;BME280;33272;51.922;7.730;2022-12-04T04:18:37;101022.16;;;1.41;100.00
47530;BME280;33272;51.922;7.730;2022-12-04T04:21:28;101018.94;;;1.42;100.00
47530;BME280;33272;51.922;7.730;2022-12-04T04:24:28;101005.03;;;1.38;100.00
47530;BME280;33272;51.922;7.730;2022-12-04T04:26:58;101018.72;;;1.41;100.00
47530;BME280;33272;51.922;7.730;2022-12-04T04:29:25;101012.78;;;1.40;100.00
47530;BME280;33272;51.922;7.730;2022-12-04T04:31:59;101016.22;;;1.41;100.00
47530;BME280;33272;51.922;7.730;2022-12-04T04:34:37;101014.78;;;1.43;100.00
47530;BME280;33272;51.922;7.730;2022-12-04T04:37:12;101020.38;;;1.40;100.00
47530;BME280;33272;51.922;7.730;2022-12-04T04:39:47;101023.03;;;1.42;100.00
47530;BME280;33272;51.922;7.730;2022-12-04T04:42:24;101029.00;;;1.42;100.00
47530;BME280;33272;51.922;7.730;2022-12-04T04:45:00;101023.78;;;1.41;100.00
47530;BME280;33272;51.922;7.730;2022-12-04T04:47:35;101027.19;;;1.41;100.00
47530;BME280;33272;51.922;7.730;2022-12-04T04:50:08;101025.41;;;1.40;100.00
47530;BME280;33272;51.922;7.730;2022-12-04T04:52:37;101025.22;;;1.38;100.00
47530;BME280;33272;51.922;7.730;2022-12-04T04:55:07;101021.81;;;1.38;100.00
47530;BME280;33272;51.922;7.730;2022-12-04T04:57:35;101022.53;;;1.37;100.00
47530;BME280;33272;51.922;7.730;2022-12-04T05:00:06;101022.53;;;1.37;100.00
47530;BME280;33272;51.922;7.730;2022-12-04T05:02:35;101020.16;;;1.38;100.00
47530;BME280;33272;51.922;7.730;2022-12-04T05:05:03;101025.22;;;1.38;100.00
47530;BME280;33272;51.922;7.730;2022-12-04T05:07:30;101023.97;;;1.35;100.00
47530;BME280;33272;51.922;7.730;2022-12-04T05:09:57;101021.81;;;1.38;100.00
47530;BME280;33272;51.922;7.730;2022-12-04T05:12:24;101017.84;;;1.40;100.00
47530;BME280;33272;51.922;7.730;2022-12-04T05:14:51;101022.88;;;1.40;100.00
47530;BME280;33272;51.922;7.730;2022-12-04T05:17:18;101020.38;;;1.40;100.00
47530;BME280;33272;51.922;7.730;2022-12-04T05:19:46;101020.38;;;1.40;100.00
47530;BME280;33272;51.922;7.730;2022-12-04T05:22:20;101025.41;;;1.40;100.00
47530;BME280;33272;51.922;7.730;2022-12-04T05:24:48;101020.16;;;1.38;100.00
47530;BME280;33272;51.922;7.730;2022-12-04T05:27:15;101017.84;;;1.40;100.00
47530;BME280;33272;51.922;7.730;2022-12-04T05:29:42;101024.66;;;1.41;100.00
47530;BME280;33272;51.922;7.730;2022-12-04T05:32:09;101016.22;;;1.41;100.00
47530;BME280;33272;51.922;7.730;2022-12-04T05:34:36;101016.56;;;1.44;100.00
47530;BME280;33272;51.922;7.730;2022-12-04T05:37:04;101013.16;;;1.43;100.00
47530;BME280;33272;51.922;7.730;2022-12-04T05:39:32;101007.91;;;1.42;100.00
47530;BME280;33272;51.922;7.730;2022-12-04T05:41:59;101004.50;;;1.41;100.00
47530;BME280;33272;51.922;7.730;2022-12-04T05:44:26;101004.34;;;1.39;100.00
47530;BME280;33272;51.922;7.730;2022-12-04T05:46:53;101001.81;;;1.39;100.00
47530;BME280;33272;51.922;7.730;2022-12-04T05:49:20;101005.38;;;1.42;100.00
47530;BME280;33272;51.922;7.730;2022-12-04T05:51:49;101005.75;;;1.45;100.00
47530;BME280;33272;51.922;7.730;2022-12-04T05:54:17;101002.16;;;1.43;100.00
47530;BME280;33272;51.922;7.730;2022-12-04T05:56:44;101006.47;;;1.44;100.00
47530;BME280;33272;51.922;7.730;2022-12-04T05:59:12;101008.25;;;1.45;100.00
47530;BME280;33272;51.922;7.730;2022-12-04T06:01:40;101007.38;;;1.44;100.00
47530;BME280;33272;51.922;7.730;2022-12-04T06:04:08;101014.03;;;1.44;100.00
47530;BME280;33272;51.922;7.730;2022-12-04T06:06:36;101005.75;;;1.45;100.00
47530;BME280;33272;51.922;7.730;2022-12-04T06:09:06;101000.69;;;1.45;100.00
47530;BME280;33272;51.922;7.730;2022-12-04T06:11:37;101003.94;;;1.44;100.00
47530;BME280;33272;51.922;7.730;2022-12-04T06:14:10;101005.03;;;1.46;100.00
47530;BME280;33272;51.922;7.730;2022-12-04T06:16:40;101003.56;;;1.48;100.00
47530;BME280;33272;51.922;7.730;2022-12-04T06:19:12;101002.69;;;1.47;100.00
47530;BME280;33272;51.922;7.730;2022-12-04T06:21:41;100994.94;;;1.46;100.00
47530;BME280;33272;51.922;7.730;2022-12-04T06:24:13;100991.53;;;1.45;100.00
47530;BME280;33272;51.922;7.730;2022-12-04T06:26:41;101000.34;;;1.49;100.00
47530;BME280;33272;51.922;7.730;2022-12-04T06:29:10;100990.41;;;1.50;100.00
47530;BME280;33272;51.922;7.730;2022-12-04T06:31:39;101003.75;;;1.49;100.00
47530;BME280;33272;51.922;7.730;2022-12-04T06:34:06;101004.81;;;1.51;100.00
47530;BME280;33272;51.922;7.730;2022-12-04T06:36:34;101001.59;;;1.52;100.00
47530;BME280;33272;51.922;7.730;2022-12-04T06:39:02;101000.69;;;1.52;100.00
47530;BME280;33272;51.922;7.730;2022-12-04T06:41:29;100995.06;;;1.54;100.00
47530;BME280;33272;51.922;7.730;2022-12-04T06:43:58;100993.28;;;1.53;100.00
47530;BME280;33272;51.922;7.730;2022-12-04T06:46:27;100999.22;;;1.54;100.00
47530;BME280;33272;51.922;7.730;2022-12-04T06:48:56;101002.63;;;1.54;100.00
47530;BME280;33272;51.922;7.730;2022-12-04T06:51:26;101001.94;;;1.55;100.00
47530;BME280;33272;51.922;7.730;2022-12-04T06:53:53;101009.31;;;1.54;100.00
47530;BME280;33272;51.922;7.730;2022-12-04T06:56:24;100999.56;;;1.57;100.00
47530;BME280;33272;51.922;7.730;2022-12-04T06:58:53;101006.25;;;1.56;100.00
47530;BME280;33272;51.922;7.730;2022-12-04T07:01:24;101005.50;;;1.57;100.00
47530;BME280;33272;51.922;7.730;2022-12-04T07:03:52;101006.44;;;1.58;100.00
47530;BME280;33272;51.922;7.730;2022-12-04T07:06:22;101005.69;;;1.59;100.00
47530;BME280;33272;51.922;7.730;2022-12-04T07:08:53;101009.13;;;1.59;100.00
47530;BME280;33272;51.922;7.730;2022-12-04T07:11:21;101014.34;;;1.61;100.00
47530;BME280;33272;51.922;7.730;2022-12-04T07:13:49;101011.81;;;1.61;100.00
47530;BME280;33272;51.922;7.730;2022-12-04T07:16:20;101005.31;;;1.63;100.00
47530;BME280;33272;51.922;7.730;2022-12-04T07:18:49;101001.91;;;1.62;100.00
47530;BME280;33272;51.922;7.730;2022-12-04T07:21:21;101019.75;;;1.64;100.00
47530;BME280;33272;51.922;7.730;2022-12-04T07:23:49;101021.34;;;1.63;100.00
47530;BME280;33272;51.922;7.730;2022-12-04T07:26:17;101017.75;;;1.61;100.00
47530;BME280;33272;51.922;7.730;2022-12-04T07:28:45;101016.47;;;1.65;100.00
47530;BME280;33272;51.922;7.730;2022-12-04T07:31:14;101009.81;;;1.66;100.00
47530;BME280;33272;51.922;7.730;2022-12-04T07:33:43;101021.69;;;1.67;100.00
47530;BME280;33272;51.922;7.730;2022-12-04T07:36:14;101026.03;;;1.68;100.00
47530;BME280;33272;51.922;7.730;2022-12-04T07:38:41;101023.50;;;1.68;100.00
47530;BME280;33272;51.922;7.730;2022-12-04T07:41:10;101023.84;;;1.71;100.00
47530;BME280;33272;51.922;7.730;2022-12-04T07:43:38;101023.47;;;1.75;100.00
47530;BME280;33272;51.922;7.730;2022-12-04T07:46:10;101023.63;;;1.76;100.00
47530;BME280;33272;51.922;7.730;2022-12-04T07:48:37;101023.97;;;1.79;100.00
47530;BME280;33272;51.922;7.730;2022-12-04T07:51:06;101024.91;;;1.80;100.00
47530;BME280;33272;51.922;7.730;2022-12-04T07:53:35;101025.06;;;1.81;100.00
47530;BME280;33272;51.922;7.730;2022-12-04T07:56:04;101023.59;;;1.83;100.00
47530;BME280;33272;51.922;7.730;2022-12-04T07:58:32;101021.44;;;1.87;100.00
47530;BME280;33272;51.922;7.730;2022-12-04T08:01:06;101016.75;;;1.82;100.00
47530;BME280;33272;51.922;7.730;2022-12-04T08:03:33;101014.56;;;1.85;100.00
47530;BME280;33272;51.922;7.730;2022-12-04T08:06:01;101014.03;;;1.88;100.00
47530;BME280;33272;51.922;7.730;2022-12-04T08:08:28;101026.09;;;1.91;100.00
47530;BME280;33272;51.922;7.730;2022-12-04T08:10:57;101021.38;;;1.94;100.00
47530;BME280;33272;51.922;7.730;2022-12-04T08:13:24;101012.19;;;1.94;100.00
47530;BME280;33272;51.922;7.730;2022-12-04T08:15:51;101015.06;;;1.97;100.00
47530;BME280;33272;51.922;7.730;2022-12-04T08:18:18;101026.03;;;1.98;100.00
47530;BME280;33272;51.922;7.730;2022-12-04T08:20:45;101022.81;;;1.99;100.00
47530;BME280;33272;51.922;7.730;2022-12-04T08:23:12;101019.56;;;2.00;100.00
47530;BME280;33272;51.922;7.730;2022-12-04T08:25:40;101011.97;;;2.00;100.00
47530;BME280;33272;51.922;7.730;2022-12-04T08:28:08;101014.84;;;2.03;100.00
47530;BME280;33272;51.922;7.730;2022-12-04T08:30:36;101009.78;;;2.03;100.00
47530;BME280;33272;51.922;7.730;2022-12-04T08:33:03;101008.91;;;2.02;100.00
47530;BME280;33272;51.922;7.730;2022-12-04T08:35:30;101019.34;;;2.05;100.00
47530;BME280;33272;51.922;7.730;2022-12-04T08:37:57;101024.72;;;2.08;100.00
47530;BME280;33272;51.922;7.730;2022-12-04T08:40:24;101019.84;;;2.10;100.00
47530;BME280;33272;51.922;7.730;2022-12-04T08:42:51;101020.53;;;2.16;100.00
47530;BME280;33272;51.922;7.730;2022-12-04T08:45:20;101023.41;;;2.19;100.00
47530;BME280;33272;51.922;7.730;2022-12-04T08:47:47;101027.56;;;2.19;100.00
47530;BME280;33272;51.922;7.730;2022-12-04T08:50:14;101025.03;;;2.19;100.00
47530;BME280;33272;51.922;7.730;2022-12-04T08:52:41;101026.81;;;2.20;100.00
47530;BME280;33272;51.922;7.730;2022-12-04T08:55:09;101025.75;;;2.18;100.00
47530;BME280;33272;51.922;7.730;2022-12-04T08:57:36;101023.25;;;2.18;100.00
47530;BME280;33272;51.922;7.730;2022-12-04T09:00:04;101029.53;;;2.21;100.00
47530;BME280;33272;51.922;7.730;2022-12-04T09:02:33;101027.16;;;2.23;100.00
47530;BME280;33272;51.922;7.730;2022-12-04T09:05:00;101030.56;;;2.23;100.00
47530;BME280;33272;51.922;7.730;2022-12-04T09:07:27;101027.50;;;2.26;100.00
47530;BME280;33272;51.922;7.730;2022-12-04T09:09:54;101040.47;;;2.29;100.00
47530;BME280;33272;51.922;7.730;2022-12-04T09:12:21;101037.94;;;2.29;100.00
47530;BME280;33272;51.922;7.730;2022-12-04T09:14:48;101026.38;;;2.31;100.00
47530;BME280;33272;51.922;7.730;2022-12-04T09:17:14;101031.59;;;2.32;100.00
47530;BME280;33272;51.922;7.730;2022-12-04T09:19:43;101022.38;;;2.33;100.00
47530;BME280;33272;51.922;7.730;2022-12-04T09:22:10;101033.41;;;2.34;100.00
47530;BME280;33272;51.922;7.730;2022-12-04T09:24:37;101036.09;;;2.35;100.00
47530;BME280;33272;51.922;7.730;2022-12-04T09:27:04;101046.19;;;2.35;100.00
47530;BME280;33272;51.922;7.730;2022-12-04T09:29:31;101037.72;;;2.35;100.00
47530;BME280;33272;51.922;7.730;2022-12-04T09:31:58;101032.81;;;2.36;100.00
47530;BME280;33272;51.922;7.730;2022-12-04T09:34:25;101038.97;;;2.38;100.00
47530;BME280;33272;51.922;7.730;2022-12-04T09:36:54;101027.22;;;2.39;100.00
47530;BME280;33272;51.922;7.730;2022-12-04T09:39:21;101042.16;;;2.44;100.00
47530;BME280;33272;51.922;7.730;2022-12-04T09:42:17;101043.78;;;2.44;100.00
47530;BME280;33272;51.922;7.730;2022-12-04T09:44:53;101043.94;;;2.45;100.00
47530;BME280;33272;51.922;7.730;2022-12-04T09:47:27;101039.97;;;2.47;100.00
47530;BME280;33272;51.922;7.730;2022-12-04T09:49:59;101039.25;;;2.48;100.00
47530;BME280;33272;51.922;7.730;2022-12-04T09:52:49;101047.91;;;2.50;100.00
47530;BME280;33272;51.922;7.730;2022-12-04T09:55:25;101048.03;;;2.52;100.00
47530;BME280;33272;51.922;7.730;2022-12-04T09:57:56;101044.25;;;2.55;100.00
47530;BME280;33272;51.922;7.730;2022-12-04T10:00:28;101046.19;;;2.58;100.00
47530;BME280;33272;51.922;7.730;2022-12-04T10:03:01;101035.38;;;2.59;100.00
47530;BME280;33272;51.922;7.730;2022-12-04T10:05:41;101035.53;;;2.61;100.00
47530;BME280;33272;51.922;7.730;2022-12-04T10:08:18;101023.97;;;2.63;100.00
47530;BME280;33272;51.922;7.730;2022-12-04T10:10:56;101026.09;;;2.67;100.00
47530;BME280;33272;51.922;7.730;2022-12-04T10:13:53;101031.34;;;2.68;100.00
47530;BME280;33272;51.922;7.730;2022-12-04T10:16:26;101027.75;;;2.66;100.00
47530;BME280;33272;51.922;7.730;2022-12-04T10:19:00;101029.84;;;2.70;100.00
47530;BME280;33272;51.922;7.730;2022-12-04T10:21:44;101019.75;;;2.70;100.00
47530;BME280;33272;51.922;7.730;2022-12-04T10:24:30;101025.31;;;2.75;100.00
47530;BME280;33272;51.922;7.730;2022-12-04T10:27:09;101035.78;;;2.78;100.00
47530;BME280;33272;51.922;7.730;2022-12-04T10:29:38;101019.88;;;2.79;100.00
47530;BME280;33272;51.922;7.730;2022-12-04T10:32:17;101026.00;;;2.81;100.00
47530;BME280;33272;51.922;7.730;2022-12-04T10:34:48;101032.84;;;2.82;100.00
47530;BME280;33272;51.922;7.730;2022-12-04T10:37:16;101027.22;;;2.85;100.00
47530;BME280;33272;51.922;7.730;2022-12-04T10:39:50;101027.22;;;2.85;100.00
47530;BME280;33272;51.922;7.730;2022-12-04T10:42:26;101022.31;;;2.86;100.00
47530;BME280;33272;51.922;7.730;2022-12-04T10:44:55;101020.88;;;2.88;100.00
47530;BME280;33272;51.922;7.730;2022-12-04T10:47:23;101013.28;;;2.88;100.00
47530;BME280;33272;51.922;7.730;2022-12-04T10:49:57;101006.03;;;2.91;100.00
47530;BME280;33272;51.922;7.730;2022-12-04T10:52:28;101012.88;;;2.92;100.00
47530;BME280;33272;51.922;7.730;2022-12-04T10:54:59;101011.41;;;2.94;100.00
47530;BME280;33272;51.922;7.730;2022-12-04T10:57:38;101012.31;;;2.95;100.00
47530;BME280;33272;51.922;7.730;2022-12-04T11:00:26;101011.56;;;2.96;100.00
47530;BME280;33272;51.922;7.730;2022-12-04T11:02:56;101007.72;;;2.99;100.00
47530;BME280;33272;51.922;7.730;2022-12-04T11:05:28;101020.56;;;3.01;100.00
47530;BME280;33272;51.922;7.730;2022-12-04T11:07:59;101012.56;;;3.05;100.00
47530;BME280;33272;51.922;7.730;2022-12-04T11:10:34;101007.50;;;3.05;100.00
47530;BME280;33272;51.922;7.730;2022-12-04T11:13:05;100999.34;;;3.08;100.00
47530;BME280;33272;51.922;7.730;2022-12-04T11:15:40;101003.66;;;3.09;100.00
47530;BME280;33272;51.922;7.730;2022-12-04T11:18:14;100990.31;;;3.10;100.00
47530;BME280;33272;51.922;7.730;2022-12-04T11:20:48;100984.50;;;3.11;100.00
47530;BME280;33272;51.922;7.730;2022-12-04T11:23:16;100982.16;;;3.12;100.00
47530;BME280;33272;51.922;7.730;2022-12-04T11:25:48;100985.59;;;3.13;100.00
47530;BME280;33272;51.922;7.730;2022-12-04T11:28:18;100977.59;;;3.17;100.00
47530;BME280;33272;51.922;7.730;2022-12-04T11:30:49;100968.69;;;3.20;100.00
47530;BME280;33272;51.922;7.730;2022-12-04T11:33:26;100970.00;;;3.17;100.00
47530;BME280;33272;51.922;7.730;2022-12-04T11:35:59;100966.34;;;3.22;100.00
47530;BME280;33272;51.922;7.730;2022-12-04T11:38:29;100965.50;;;3.30;100.00
47530;BME280;33272;51.922;7.730;2022-12-04T11:41:01;100957.66;;;3.36;100.00
47530;BME280;33272;51.922;7.730;2022-12-04T11:43:29;100957.09;;;3.38;100.00
47530;BME280;33272;51.922;7.730;2022-12-04T11:45:59;100961.09;;;3.36;100.00
47530;BME280;33272;51.922;7.730;2022-12-04T11:48:30;100957.34;;;3.33;100.00
47530;BME280;33272;51.922;7.730;2022-12-04T11:51:11;100946.09;;;3.38;100.00
47530;BME280;33272;51.922;7.730;2022-12-04T11:53:46;100943.25;;;3.35;100.00
47530;BME280;33272;51.922;7.730;2022-12-04T11:56:24;100945.03;;;3.36;100.00
47530;BME280;33272;51.922;7.730;2022-12-04T11:59:11;100938.88;;;3.34;100.00
47530;BME280;33272;51.922;7.730;2022-12-04T12:01:49;100946.66;;;3.35;100.00
47530;BME280;33272;51.922;7.730;2022-12-04T12:07:26;100948.88;;;3.32;100.00
47530;BME280;33272;51.922;7.730;2022-12-04T12:10:02;100951.53;;;3.34;100.00
47530;BME280;33272;51.922;7.730;2022-12-04T12:12:45;100948.28;;;3.35;100.00
47530;BME280;33272;51.922;7.730;2022-12-04T12:15:22;100952.28;;;3.33;100.00
47530;BME280;33272;51.922;7.730;2022-12-04T12:18:10;100950.88;;;3.28;100.00
47530;BME280;33272;51.922;7.730;2022-12-04T12:20:46;100948.97;;;3.25;100.00
47530;BME280;33272;51.922;7.730;2022-12-04T12:23:29;100944.78;;;3.25;100.00
47530;BME280;33272;51.922;7.730;2022-12-04T12:26:08;100946.44;;;3.25;100.00
47530;BME280;33272;51.922;7.730;2022-12-04T12:28:59;100937.03;;;3.24;100.00
47530;BME280;33272;51.922;7.730;2022-12-04T12:31:49;100933.78;;;3.25;100.00
47530;BME280;33272;51.922;7.730;2022-12-04T12:34:29;100940.63;;;3.26;100.00
47530;BME280;33272;51.922;7.730;2022-12-04T12:37:04;100934.09;;;3.28;100.00
47530;BME280;33272;51.922;7.730;2022-12-04T12:39:39;100938.00;;;3.33;100.00
47530;BME280;33272;51.922;7.730;2022-12-04T12:42:14;100929.84;;;3.36;100.00
47530;BME280;33272;51.922;7.730;2022-12-04T12:44:52;100929.53;;;3.33;100.00
47530;BME280;33272;51.922;7.730;2022-12-04T12:47:24;100925.91;;;3.31;100.00
47530;BME280;33272;51.922;7.730;2022-12-04T12:49:58;100924.00;;;3.28;100.00
47530;BME280;33272;51.922;7.730;2022-12-04T12:52:32;100932.03;;;3.33;100.00
47530;BME280;33272;51.922;7.730;2022-12-04T12:55:12;100926.09;;;3.32;100.00
47530;BME280;33272;51.922;7.730;2022-12-04T12:57:42;100918.34;;;3.31;100.00
47530;BME280;33272;51.922;7.730;2022-12-04T13:00:16;100919.50;;;3.25;100.00
47530;BME280;33272;51.922;7.730;2022-12-04T13:02:48;100915.47;;;3.28;100.00
47530;BME280;33272;51.922;7.730;2022-12-04T13:05:23;100922.34;;;3.29;100.00
47530;BME280;33272;51.922;7.730;2022-12-04T13:08:00;100901.22;;;3.28;100.00
47530;BME280;33272;51.922;7.730;2022-12-04T13:10:35;100902.25;;;3.30;100.00
47530;BME280;33272;51.922;7.730;2022-12-04T13:13:07;100900.47;;;3.29;100.00
47530;BME280;33272;51.922;7.730;2022-12-04T13:15:44;100891.69;;;3.25;100.00
47530;BME280;33272;51.922;7.730;2022-12-04T13:18:22;100891.69;;;3.25;100.00